sensor_id;sensor_type;location;lat;lon;timestamp;temperature;humidity
14095;DHT22;18096;48.142;16.290;2022-11-15T00:01:54;7.80;99.90
14095;DHT22;18096;48.142;16.290;2022-11-15T00:04:20;7.80;99.90
14095;DHT22;18096;48.142;16.290;2022-11-15T00:06:45;7.80;99.90
14095;DHT22;18096;48.142;16.290;2022-11-15T00:09:11;7.80;99.90
14095;DHT22;18096;48.142;16.290;2022-11-15T00:11:37;7.90;99.90
14095;DHT22;18096;48.142;16.290;2022-11-15T00:14:02;7.90;99.90
14095;DHT22;18096;48.142;16.290;2022-11-15T00:16:28;7.90;99.90
14095;DHT22;18096;48.142;16.290;2022-11-15T00:18:54;7.90;99.90
14095;DHT22;18096;48.142;16.290;2022-11-15T00:21:20;7.90;99.90
14095;DHT22;18096;48.142;16.290;2022-11-15T00:23:46;7.90;99.90
14095;DHT22;18096;48.142;16.290;2022-11-15T00:26:15;7.80;99.90
14095;DHT22;18096;48.142;16.290;2022-11-15T00:28:41;7.80;99.90
14095;DHT22;18096;48.142;16.290;2022-11-15T00:31:11;7.80;99.90
14095;DHT22;18096;48.142;16.290;2022-11-15T00:33:37;7.80;99.90
14095;DHT22;18096;48.142;16.290;2022-11-15T00:36:07;7.80;99.90
14095;DHT22;18096;48.142;16.290;2022-11-15T00:38:37;7.90;99.90
14095;DHT22;18096;48.142;16.290;2022-11-15T00:41:04;7.90;99.90
14095;DHT22;18096;48.142;16.290;2022-11-15T00:43:30;7.90;99.90
14095;DHT22;18096;48.142;16.290;2022-11-15T00:45:56;7.90;99.90
14095;DHT22;18096;48.142;16.290;2022-11-15T00:48:21;7.90;99.90
14095;DHT22;18096;48.142;16.290;2022-11-15T00:50:48;7.80;99.90
14095;DHT22;18096;48.142;16.290;2022-11-15T00:53:14;7.80;99.90
14095;DHT22;18096;48.142;16.290;2022-11-15T00:55:40;7.90;99.90
14095;DHT22;18096;48.142;16.290;2022-11-15T00:58:06;7.90;99.90
14095;DHT22;18096;48.142;16.290;2022-11-15T01:00:32;7.90;99.90
14095;DHT22;18096;48.142;16.290;2022-11-15T01:02:57;7.90;99.90
14095;DHT22;18096;48.142;16.290;2022-11-15T01:05:23;7.90;99.90
14095;DHT22;18096;48.142;16.290;2022-11-15T01:07:53;7.90;99.90
14095;DHT22;18096;48.142;16.290;2022-11-15T01:10:19;7.90;99.90
14095;DHT22;18096;48.142;16.290;2022-11-15T01:12:45;7.90;99.90
14095;DHT22;18096;48.142;16.290;2022-11-15T01:15:11;7.90;99.90
14095;DHT22;18096;48.142;16.290;2022-11-15T01:17:37;7.90;99.90
14095;DHT22;18096;48.142;16.290;2022-11-15T01:20:03;7.90;99.90
14095;DHT22;18096;48.142;16.290;2022-11-15T01:22:29;7.90;99.90
14095;DHT22;18096;48.142;16.290;2022-11-15T01:24:54;7.90;99.90
14095;DHT22;18096;48.142;16.290;2022-11-15T01:27:20;7.90;99.90
14095;DHT22;18096;48.142;16.290;2022-11-15T01:29:46;7.90;99.90
14095;DHT22;18096;48.142;16.290;2022-11-15T01:32:11;7.90;99.90
14095;DHT22;18096;48.142;16.290;2022-11-15T01:34:37;7.90;99.90
14095;DHT22;18096;48.142;16.290;2022-11-15T01:37:03;7.90;99.90
14095;DHT22;18096;48.142;16.290;2022-11-15T01:39:28;7.90;99.90
14095;DHT22;18096;48.142;16.290;2022-11-15T01:41:54;7.90;99.90
14095;DHT22;18096;48.142;16.290;2022-11-15T01:44:48;7.90;99.90
14095;DHT22;18096;48.142;16.290;2022-11-15T01:47:20;7.90;99.90
14095;DHT22;18096;48.142;16.290;2022-11-15T01:52:19;7.90;99.90
14095;DHT22;18096;48.142;16.290;2022-11-15T01:54:46;7.90;99.90
14095;DHT22;18096;48.142;16.290;2022-11-15T01:57:12;7.90;99.90
14095;DHT22;18096;48.142;16.290;2022-11-15T01:59:40;7.90;99.90
14095;DHT22;18096;48.142;16.290;2022-11-15T02:02:07;7.90;99.90
14095;DHT22;18096;48.142;16.290;2022-11-15T02:04:37;7.90;99.90
14095;DHT22;18096;48.142;16.290;2022-11-15T02:07:06;8.00;99.90
14095;DHT22;18096;48.142;16.290;2022-11-15T02:09:32;8.00;99.90
14095;DHT22;18096;48.142;16.290;2022-11-15T02:11:59;8.00;99.90
14095;DHT22;18096;48.142;16.290;2022-11-15T02:14:26;8.00;99.90
14095;DHT22;18096;48.142;16.290;2022-11-15T02:28:16;8.00;99.90
14095;DHT22;18096;48.142;16.290;2022-11-15T02:36:17;8.00;99.90
14095;DHT22;18096;48.142;16.290;2022-11-15T02:41:32;8.10;99.90
14095;DHT22;18096;48.142;16.290;2022-11-15T02:44:15;8.10;99.90
14095;DHT22;18096;48.142;16.290;2022-11-15T02:47:03;8.10;99.90
14095;DHT22;18096;48.142;16.290;2022-11-15T02:49:52;8.10;99.90
14095;DHT22;18096;48.142;16.290;2022-11-15T02:52:23;8.10;99.90
14095;DHT22;18096;48.142;16.290;2022-11-15T02:54:58;8.10;99.90
14095;DHT22;18096;48.142;16.290;2022-11-15T03:00:12;8.00;99.90
14095;DHT22;18096;48.142;16.290;2022-11-15T03:08:32;8.00;99.90
14095;DHT22;18096;48.142;16.290;2022-11-15T03:11:14;8.00;99.90
14095;DHT22;18096;48.142;16.290;2022-11-15T03:19:22;7.90;99.90
14095;DHT22;18096;48.142;16.290;2022-11-15T03:21:52;7.90;99.90
14095;DHT22;18096;48.142;16.290;2022-11-15T03:24:21;8.00;99.90
14095;DHT22;18096;48.142;16.290;2022-11-15T03:26:48;8.00;99.90
14095;DHT22;18096;48.142;16.290;2022-11-15T03:29:20;8.00;99.90
14095;DHT22;18096;48.142;16.290;2022-11-15T03:31:53;8.00;99.90
14095;DHT22;18096;48.142;16.290;2022-11-15T03:34:36;8.00;99.90
14095;DHT22;18096;48.142;16.290;2022-11-15T03:37:02;8.00;99.90
14095;DHT22;18096;48.142;16.290;2022-11-15T03:39:29;8.00;99.90
14095;DHT22;18096;48.142;16.290;2022-11-15T03:44:42;8.00;99.90
14095;DHT22;18096;48.142;16.290;2022-11-15T03:47:34;8.00;99.90
14095;DHT22;18096;48.142;16.290;2022-11-15T03:50:13;8.00;99.90
14095;DHT22;18096;48.142;16.290;2022-11-15T03:52:41;8.00;99.90
14095;DHT22;18096;48.142;16.290;2022-11-15T03:55:10;8.00;99.90
14095;DHT22;18096;48.142;16.290;2022-11-15T03:57:36;8.00;99.90
14095;DHT22;18096;48.142;16.290;2022-11-15T04:00:03;8.00;99.90
14095;DHT22;18096;48.142;16.290;2022-11-15T04:02:29;8.00;99.90
14095;DHT22;18096;48.142;16.290;2022-11-15T04:04:54;8.00;99.90
14095;DHT22;18096;48.142;16.290;2022-11-15T04:07:20;8.00;99.90
14095;DHT22;18096;48.142;16.290;2022-11-15T04:09:45;7.90;99.90
14095;DHT22;18096;48.142;16.290;2022-11-15T04:12:36;8.00;99.90
14095;DHT22;18096;48.142;16.290;2022-11-15T04:15:07;8.00;99.90
14095;DHT22;18096;48.142;16.290;2022-11-15T04:17:36;8.00;99.90
14095;DHT22;18096;48.142;16.290;2022-11-15T04:20:16;8.00;99.90
14095;DHT22;18096;48.142;16.290;2022-11-15T04:23:03;8.00;99.90
14095;DHT22;18096;48.142;16.290;2022-11-15T04:25:50;8.00;99.90
14095;DHT22;18096;48.142;16.290;2022-11-15T04:28:17;7.90;99.90
14095;DHT22;18096;48.142;16.290;2022-11-15T04:30:43;7.90;99.90
14095;DHT22;18096;48.142;16.290;2022-11-15T04:33:08;7.90;99.90
14095;DHT22;18096;48.142;16.290;2022-11-15T04:35:34;7.90;99.90
14095;DHT22;18096;48.142;16.290;2022-11-15T04:38:01;7.90;99.90
14095;DHT22;18096;48.142;16.290;2022-11-15T04:40:27;7.90;99.90
14095;DHT22;18096;48.142;16.290;2022-11-15T04:42:53;7.90;99.90
14095;DHT22;18096;48.142;16.290;2022-11-15T04:45:18;7.90;99.90
14095;DHT22;18096;48.142;16.290;2022-11-15T04:47:44;8.00;99.90
14095;DHT22;18096;48.142;16.290;2022-11-15T04:50:12;8.00;99.90
14095;DHT22;18096;48.142;16.290;2022-11-15T04:52:43;8.00;99.90
14095;DHT22;18096;48.142;16.290;2022-11-15T04:55:10;8.00;99.90
14095;DHT22;18096;48.142;16.290;2022-11-15T04:57:36;8.00;99.90
14095;DHT22;18096;48.142;16.290;2022-11-15T05:00:07;8.00;99.90
14095;DHT22;18096;48.142;16.290;2022-11-15T05:02:33;8.00;99.90
14095;DHT22;18096;48.142;16.290;2022-11-15T05:05:17;8.00;99.90
14095;DHT22;18096;48.142;16.290;2022-11-15T05:07:43;8.00;99.90
14095;DHT22;18096;48.142;16.290;2022-11-15T05:10:09;8.00;99.90
14095;DHT22;18096;48.142;16.290;2022-11-15T05:12:35;8.00;99.90
14095;DHT22;18096;48.142;16.290;2022-11-15T05:15:01;8.00;99.90
14095;DHT22;18096;48.142;16.290;2022-11-15T05:17:26;8.00;99.90
14095;DHT22;18096;48.142;16.290;2022-11-15T05:19:52;8.00;99.90
14095;DHT22;18096;48.142;16.290;2022-11-15T05:22:18;8.00;99.90
14095;DHT22;18096;48.142;16.290;2022-11-15T05:24:44;8.00;99.90
14095;DHT22;18096;48.142;16.290;2022-11-15T05:27:10;8.00;99.90
14095;DHT22;18096;48.142;16.290;2022-11-15T05:29:35;8.00;99.90
14095;DHT22;18096;48.142;16.290;2022-11-15T05:32:02;8.00;99.90
14095;DHT22;18096;48.142;16.290;2022-11-15T05:34:28;8.00;99.90
14095;DHT22;18096;48.142;16.290;2022-11-15T05:36:54;8.00;99.90
14095;DHT22;18096;48.142;16.290;2022-11-15T05:39:20;7.90;99.90
14095;DHT22;18096;48.142;16.290;2022-11-15T05:41:54;8.00;99.90
14095;DHT22;18096;48.142;16.290;2022-11-15T05:44:22;8.00;99.90
14095;DHT22;18096;48.142;16.290;2022-11-15T05:46:50;8.00;99.90
14095;DHT22;18096;48.142;16.290;2022-11-15T05:49:20;8.00;99.90
14095;DHT22;18096;48.142;16.290;2022-11-15T05:51:48;8.00;99.90
14095;DHT22;18096;48.142;16.290;2022-11-15T05:54:15;8.00;99.90
14095;DHT22;18096;48.142;16.290;2022-11-15T05:56:41;8.00;99.90
14095;DHT22;18096;48.142;16.290;2022-11-15T05:59:08;8.00;99.90
14095;DHT22;18096;48.142;16.290;2022-11-15T06:01:34;8.00;99.90
14095;DHT22;18096;48.142;16.290;2022-11-15T06:04:00;8.10;99.90
14095;DHT22;18096;48.142;16.290;2022-11-15T06:06:27;8.10;99.90
14095;DHT22;18096;48.142;16.290;2022-11-15T06:08:53;8.10;99.90
14095;DHT22;18096;48.142;16.290;2022-11-15T06:11:19;8.10;99.90
14095;DHT22;18096;48.142;16.290;2022-11-15T06:13:44;8.10;99.90
14095;DHT22;18096;48.142;16.290;2022-11-15T06:16:10;8.00;99.90
14095;DHT22;18096;48.142;16.290;2022-11-15T06:18:36;8.00;99.90
14095;DHT22;18096;48.142;16.290;2022-11-15T06:21:02;8.00;99.90
14095;DHT22;18096;48.142;16.290;2022-11-15T06:23:32;8.00;99.90
14095;DHT22;18096;48.142;16.290;2022-11-15T06:25:59;8.00;99.90
14095;DHT22;18096;48.142;16.290;2022-11-15T06:28:27;8.00;99.90
14095;DHT22;18096;48.142;16.290;2022-11-15T06:30:53;8.00;99.90
14095;DHT22;18096;48.142;16.290;2022-11-15T06:33:19;8.00;99.90
14095;DHT22;18096;48.142;16.290;2022-11-15T06:35:44;8.00;99.90
14095;DHT22;18096;48.142;16.290;2022-11-15T06:38:10;8.00;99.90
14095;DHT22;18096;48.142;16.290;2022-11-15T06:40:38;8.00;99.90
14095;DHT22;18096;48.142;16.290;2022-11-15T06:43:05;8.00;99.90
14095;DHT22;18096;48.142;16.290;2022-11-15T06:45:31;8.10;99.90
14095;DHT22;18096;48.142;16.290;2022-11-15T06:47:57;8.10;99.90
14095;DHT22;18096;48.142;16.290;2022-11-15T06:50:24;8.10;99.90
14095;DHT22;18096;48.142;16.290;2022-11-15T06:52:49;8.10;99.90
14095;DHT22;18096;48.142;16.290;2022-11-15T06:55:15;8.10;99.90
14095;DHT22;18096;48.142;16.290;2022-11-15T06:57:51;8.10;99.90
14095;DHT22;18096;48.142;16.290;2022-11-15T07:00:21;8.00;99.90
14095;DHT22;18096;48.142;16.290;2022-11-15T07:02:47;8.00;99.90
14095;DHT22;18096;48.142;16.290;2022-11-15T07:05:14;8.00;99.90
14095;DHT22;18096;48.142;16.290;2022-11-15T07:07:40;8.00;99.90
14095;DHT22;18096;48.142;16.290;2022-11-15T07:10:06;8.00;99.90
14095;DHT22;18096;48.142;16.290;2022-11-15T07:12:32;8.00;99.90
14095;DHT22;18096;48.142;16.290;2022-11-15T07:14:57;8.00;99.90
14095;DHT22;18096;48.142;16.290;2022-11-15T07:17:23;8.10;99.90
14095;DHT22;18096;48.142;16.290;2022-11-15T07:19:49;8.10;99.90
14095;DHT22;18096;48.142;16.290;2022-11-15T07:22:14;8.10;99.90
14095;DHT22;18096;48.142;16.290;2022-11-15T07:24:40;8.10;99.90
14095;DHT22;18096;48.142;16.290;2022-11-15T07:27:05;8.10;99.90
14095;DHT22;18096;48.142;16.290;2022-11-15T07:29:31;8.10;99.90
14095;DHT22;18096;48.142;16.290;2022-11-15T07:31:57;8.10;99.90
14095;DHT22;18096;48.142;16.290;2022-11-15T07:34:23;8.10;99.90
14095;DHT22;18096;48.142;16.290;2022-11-15T07:36:49;8.10;99.90
14095;DHT22;18096;48.142;16.290;2022-11-15T07:39:14;8.10;99.90
14095;DHT22;18096;48.142;16.290;2022-11-15T07:41:40;8.10;99.90
14095;DHT22;18096;48.142;16.290;2022-11-15T07:44:06;8.10;99.90
14095;DHT22;18096;48.142;16.290;2022-11-15T07:46:31;8.10;99.90
14095;DHT22;18096;48.142;16.290;2022-11-15T07:48:57;8.20;99.90
14095;DHT22;18096;48.142;16.290;2022-11-15T07:51:23;8.20;99.90
14095;DHT22;18096;48.142;16.290;2022-11-15T07:53:49;8.10;99.90
14095;DHT22;18096;48.142;16.290;2022-11-15T07:56:14;8.10;99.90
14095;DHT22;18096;48.142;16.290;2022-11-15T07:58:40;8.10;99.90
14095;DHT22;18096;48.142;16.290;2022-11-15T08:01:09;8.20;99.90
14095;DHT22;18096;48.142;16.290;2022-11-15T08:03:35;8.20;99.90
14095;DHT22;18096;48.142;16.290;2022-11-15T08:06:02;8.20;99.90
14095;DHT22;18096;48.142;16.290;2022-11-15T08:08:28;8.20;99.90
14095;DHT22;18096;48.142;16.290;2022-11-15T08:10:53;8.20;99.90
14095;DHT22;18096;48.142;16.290;2022-11-15T08:13:19;8.20;99.90
14095;DHT22;18096;48.142;16.290;2022-11-15T08:15:46;8.20;99.90
14095;DHT22;18096;48.142;16.290;2022-11-15T08:18:14;8.20;99.90
14095;DHT22;18096;48.142;16.290;2022-11-15T08:20:41;8.20;99.90
14095;DHT22;18096;48.142;16.290;2022-11-15T08:23:07;8.20;99.90
14095;DHT22;18096;48.142;16.290;2022-11-15T08:25:34;8.20;99.90
14095;DHT22;18096;48.142;16.290;2022-11-15T08:28:04;8.20;99.90
14095;DHT22;18096;48.142;16.290;2022-11-15T08:30:33;8.20;99.90
14095;DHT22;18096;48.142;16.290;2022-11-15T08:32:59;8.20;99.90
14095;DHT22;18096;48.142;16.290;2022-11-15T08:35:25;8.30;99.90
14095;DHT22;18096;48.142;16.290;2022-11-15T08:37:53;8.30;99.90
14095;DHT22;18096;48.142;16.290;2022-11-15T08:40:19;8.30;99.90
14095;DHT22;18096;48.142;16.290;2022-11-15T08:42:48;8.30;99.90
14095;DHT22;18096;48.142;16.290;2022-11-15T08:45:14;8.30;99.90
14095;DHT22;18096;48.142;16.290;2022-11-15T08:47:40;8.30;99.90
14095;DHT22;18096;48.142;16.290;2022-11-15T08:50:06;8.30;99.90
14095;DHT22;18096;48.142;16.290;2022-11-15T08:52:32;8.30;99.90
14095;DHT22;18096;48.142;16.290;2022-11-15T08:54:58;8.20;99.90
14095;DHT22;18096;48.142;16.290;2022-11-15T08:57:23;8.30;99.90
14095;DHT22;18096;48.142;16.290;2022-11-15T08:59:49;8.30;99.90
14095;DHT22;18096;48.142;16.290;2022-11-15T09:02:15;8.30;99.90
14095;DHT22;18096;48.142;16.290;2022-11-15T09:04:42;8.40;99.90
14095;DHT22;18096;48.142;16.290;2022-11-15T09:07:10;8.30;99.90
14095;DHT22;18096;48.142;16.290;2022-11-15T09:09:36;8.30;99.90
14095;DHT22;18096;48.142;16.290;2022-11-15T09:12:02;8.40;99.90
14095;DHT22;18096;48.142;16.290;2022-11-15T09:14:27;8.40;99.90
14095;DHT22;18096;48.142;16.290;2022-11-15T09:16:53;8.40;99.90
14095;DHT22;18096;48.142;16.290;2022-11-15T09:19:19;8.40;99.90
14095;DHT22;18096;48.142;16.290;2022-11-15T09:21:44;8.40;99.90
14095;DHT22;18096;48.142;16.290;2022-11-15T09:24:10;8.40;99.90
14095;DHT22;18096;48.142;16.290;2022-11-15T09:26:36;8.40;99.90
14095;DHT22;18096;48.142;16.290;2022-11-15T09:29:02;8.40;99.90
14095;DHT22;18096;48.142;16.290;2022-11-15T09:31:28;8.40;99.90
14095;DHT22;18096;48.142;16.290;2022-11-15T09:33:55;8.40;99.90
14095;DHT22;18096;48.142;16.290;2022-11-15T09:36:20;8.50;99.90
14095;DHT22;18096;48.142;16.290;2022-11-15T09:38:46;8.50;99.90
14095;DHT22;18096;48.142;16.290;2022-11-15T09:49:01;8.40;99.90
14095;DHT22;18096;48.142;16.290;2022-11-15T09:51:32;8.50;99.90
14095;DHT22;18096;48.142;16.290;2022-11-15T09:56:36;8.40;99.90
14095;DHT22;18096;48.142;16.290;2022-11-15T10:04:24;8.50;99.90
14095;DHT22;18096;48.142;16.290;2022-11-15T10:07:13;8.50;99.90
14095;DHT22;18096;48.142;16.290;2022-11-15T10:09:47;8.60;99.90
14095;DHT22;18096;48.142;16.290;2022-11-15T10:12:14;8.60;99.90
14095;DHT22;18096;48.142;16.290;2022-11-15T10:14:41;8.60;99.90
14095;DHT22;18096;48.142;16.290;2022-11-15T10:22:41;8.60;99.90
14095;DHT22;18096;48.142;16.290;2022-11-15T10:27:35;8.70;99.90
14095;DHT22;18096;48.142;16.290;2022-11-15T10:30:01;8.60;99.90
14095;DHT22;18096;48.142;16.290;2022-11-15T10:32:29;8.60;99.90
14095;DHT22;18096;48.142;16.290;2022-11-15T10:34:58;8.60;99.90
14095;DHT22;18096;48.142;16.290;2022-11-15T10:37:31;8.60;99.90
14095;DHT22;18096;48.142;16.290;2022-11-15T10:40:18;8.60;99.90
14095;DHT22;18096;48.142;16.290;2022-11-15T10:42:45;8.60;99.90
14095;DHT22;18096;48.142;16.290;2022-11-15T10:45:28;8.70;99.90
14095;DHT22;18096;48.142;16.290;2022-11-15T10:50:47;8.70;99.90
14095;DHT22;18096;48.142;16.290;2022-11-15T10:53:29;8.70;99.90
14095;DHT22;18096;48.142;16.290;2022-11-15T10:55:59;8.70;99.90
14095;DHT22;18096;48.142;16.290;2022-11-15T10:58:39;8.80;99.90
14095;DHT22;18096;48.142;16.290;2022-11-15T11:01:23;8.70;99.90
14095;DHT22;18096;48.142;16.290;2022-11-15T11:04:07;8.80;99.90
14095;DHT22;18096;48.142;16.290;2022-11-15T11:06:54;8.80;99.90
14095;DHT22;18096;48.142;16.290;2022-11-15T11:11:51;8.80;99.90
14095;DHT22;18096;48.142;16.290;2022-11-15T11:16:52;8.80;99.90
14095;DHT22;18096;48.142;16.290;2022-11-15T11:25:46;8.80;99.90
14095;DHT22;18096;48.142;16.290;2022-11-15T11:28:24;8.80;99.90
14095;DHT22;18096;48.142;16.290;2022-11-15T11:33:20;8.80;99.90
14095;DHT22;18096;48.142;16.290;2022-11-15T11:38:38;8.80;99.90
14095;DHT22;18096;48.142;16.290;2022-11-15T11:41:39;8.90;99.90
14095;DHT22;18096;48.142;16.290;2022-11-15T11:47:03;8.90;99.90
14095;DHT22;18096;48.142;16.290;2022-11-15T11:52:29;9.00;99.90
14095;DHT22;18096;48.142;16.290;2022-11-15T11:57:33;9.00;99.90
14095;DHT22;18096;48.142;16.290;2022-11-15T12:00:12;9.00;99.90
14095;DHT22;18096;48.142;16.290;2022-11-15T12:02:43;9.00;99.90
14095;DHT22;18096;48.142;16.290;2022-11-15T12:05:22;9.00;99.90
14095;DHT22;18096;48.142;16.290;2022-11-15T12:07:54;9.10;99.90
14095;DHT22;18096;48.142;16.290;2022-11-15T12:10:28;9.10;99.90
14095;DHT22;18096;48.142;16.290;2022-11-15T12:15:32;9.10;99.90
14095;DHT22;18096;48.142;16.290;2022-11-15T12:18:01;9.10;99.90
14095;DHT22;18096;48.142;16.290;2022-11-15T12:20:40;9.10;99.90
14095;DHT22;18096;48.142;16.290;2022-11-15T12:23:17;9.10;99.90
14095;DHT22;18096;48.142;16.290;2022-11-15T12:25:52;9.10;99.90
14095;DHT22;18096;48.142;16.290;2022-11-15T12:28:38;9.20;99.90
14095;DHT22;18096;48.142;16.290;2022-11-15T12:31:15;9.20;99.90
14095;DHT22;18096;48.142;16.290;2022-11-15T12:33:44;9.30;99.90
14095;DHT22;18096;48.142;16.290;2022-11-15T12:36:12;9.30;99.90
14095;DHT22;18096;48.142;16.290;2022-11-15T12:38:58;9.30;99.90
14095;DHT22;18096;48.142;16.290;2022-11-15T12:43:50;9.30;99.90
14095;DHT22;18096;48.142;16.290;2022-11-15T12:52:03;9.30;99.90
14095;DHT22;18096;48.142;16.290;2022-11-15T13:02:33;9.30;99.90
14095;DHT22;18096;48.142;16.290;2022-11-15T13:17:55;9.30;99.90
14095;DHT22;18096;48.142;16.290;2022-11-15T13:20:29;9.30;99.90
14095;DHT22;18096;48.142;16.290;2022-11-15T13:23:08;9.30;99.90
14095;DHT22;18096;48.142;16.290;2022-11-15T13:33:34;9.30;99.90
14095;DHT22;18096;48.142;16.290;2022-11-15T13:36:04;9.40;99.90
14095;DHT22;18096;48.142;16.290;2022-11-15T13:38:36;9.40;99.90
14095;DHT22;18096;48.142;16.290;2022-11-15T13:41:22;9.40;99.90
14095;DHT22;18096;48.142;16.290;2022-11-15T13:43:49;9.40;99.90
14095;DHT22;18096;48.142;16.290;2022-11-15T13:46:21;9.40;99.90
14095;DHT22;18096;48.142;16.290;2022-11-15T13:48:53;9.40;99.90
14095;DHT22;18096;48.142;16.290;2022-11-15T13:56:42;9.40;99.90
14095;DHT22;18096;48.142;16.290;2022-11-15T13:59:23;9.40;99.90
14095;DHT22;18096;48.142;16.290;2022-11-15T14:01:50;9.40;99.90
14095;DHT22;18096;48.142;16.290;2022-11-15T14:04:21;9.50;99.90
14095;DHT22;18096;48.142;16.290;2022-11-15T14:06:56;9.50;99.90
14095;DHT22;18096;48.142;16.290;2022-11-15T14:09:27;9.40;99.90
14095;DHT22;18096;48.142;16.290;2022-11-15T14:11:56;9.50;99.90
14095;DHT22;18096;48.142;16.290;2022-11-15T14:14:26;9.50;99.90
14095;DHT22;18096;48.142;16.290;2022-11-15T14:16:57;9.50;99.90
14095;DHT22;18096;48.142;16.290;2022-11-15T14:22:14;9.40;99.90
14095;DHT22;18096;48.142;16.290;2022-11-15T14:24:43;9.40;99.90
14095;DHT22;18096;48.142;16.290;2022-11-15T14:27:27;9.40;99.90
14095;DHT22;18096;48.142;16.290;2022-11-15T14:29:54;9.30;99.90
14095;DHT22;18096;48.142;16.290;2022-11-15T14:32:21;9.40;99.90
14095;DHT22;18096;48.142;16.290;2022-11-15T14:34:57;9.40;99.90
14095;DHT22;18096;48.142;16.290;2022-11-15T14:37:31;9.40;99.90
14095;DHT22;18096;48.142;16.290;2022-11-15T14:40:03;9.40;99.90
14095;DHT22;18096;48.142;16.290;2022-11-15T14:42:29;9.40;99.90
14095;DHT22;18096;48.142;16.290;2022-11-15T14:44:54;9.40;99.90
14095;DHT22;18096;48.142;16.290;2022-11-15T14:47:20;9.40;99.90
14095;DHT22;18096;48.142;16.290;2022-11-15T14:49:46;9.40;99.90
14095;DHT22;18096;48.142;16.290;2022-11-15T14:52:29;9.50;99.90
14095;DHT22;18096;48.142;16.290;2022-11-15T14:54:56;9.40;99.90
14095;DHT22;18096;48.142;16.290;2022-11-15T14:57:23;9.40;99.90
14095;DHT22;18096;48.142;16.290;2022-11-15T14:59:49;9.40;99.90
14095;DHT22;18096;48.142;16.290;2022-11-15T15:02:20;9.40;99.90
14095;DHT22;18096;48.142;16.290;2022-11-15T15:04:46;9.40;99.90
14095;DHT22;18096;48.142;16.290;2022-11-15T15:07:12;9.40;99.90
14095;DHT22;18096;48.142;16.290;2022-11-15T15:09:38;9.40;99.90
14095;DHT22;18096;48.142;16.290;2022-11-15T15:12:05;9.40;99.90
14095;DHT22;18096;48.142;16.290;2022-11-15T15:14:32;9.40;99.90
14095;DHT22;18096;48.142;16.290;2022-11-15T15:16:57;9.40;99.90
14095;DHT22;18096;48.142;16.290;2022-11-15T15:19:23;9.40;99.90
14095;DHT22;18096;48.142;16.290;2022-11-15T15:21:49;9.40;99.90
14095;DHT22;18096;48.142;16.290;2022-11-15T15:24:14;9.40;99.90
14095;DHT22;18096;48.142;16.290;2022-11-15T15:26:40;9.40;99.90
14095;DHT22;18096;48.142;16.290;2022-11-15T15:29:06;9.50;99.90
14095;DHT22;18096;48.142;16.290;2022-11-15T15:31:34;9.50;99.90
14095;DHT22;18096;48.142;16.290;2022-11-15T15:34:00;9.50;99.90
14095;DHT22;18096;48.142;16.290;2022-11-15T15:36:25;9.40;99.90
14095;DHT22;18096;48.142;16.290;2022-11-15T15:38:51;9.40;99.90
14095;DHT22;18096;48.142;16.290;2022-11-15T15:41:17;9.40;99.90
14095;DHT22;18096;48.142;16.290;2022-11-15T15:43:43;9.40;99.90
14095;DHT22;18096;48.142;16.290;2022-11-15T15:46:15;9.40;99.90
14095;DHT22;18096;48.142;16.290;2022-11-15T15:48:41;9.40;99.90
14095;DHT22;18096;48.142;16.290;2022-11-15T15:51:07;9.40;99.90
14095;DHT22;18096;48.142;16.290;2022-11-15T15:53:33;9.40;99.90
14095;DHT22;18096;48.142;16.290;2022-11-15T15:55:59;9.40;99.90
14095;DHT22;18096;48.142;16.290;2022-11-15T15:58:25;9.40;99.90
14095;DHT22;18096;48.142;16.290;2022-11-15T16:00:50;9.40;99.90
14095;DHT22;18096;48.142;16.290;2022-11-15T16:03:16;9.40;99.90
14095;DHT22;18096;48.142;16.290;2022-11-15T16:05:42;9.40;99.90
14095;DHT22;18096;48.142;16.290;2022-11-15T16:08:28;9.40;99.90
14095;DHT22;18096;48.142;16.290;2022-11-15T16:10:55;9.50;99.90
14095;DHT22;18096;48.142;16.290;2022-11-15T16:13:21;9.40;99.90
14095;DHT22;18096;48.142;16.290;2022-11-15T16:15:51;9.50;99.90
14095;DHT22;18096;48.142;16.290;2022-11-15T16:18:18;9.50;99.90
14095;DHT22;18096;48.142;16.290;2022-11-15T16:20:48;9.50;99.90
14095;DHT22;18096;48.142;16.290;2022-11-15T16:23:22;9.50;99.90
14095;DHT22;18096;48.142;16.290;2022-11-15T16:25:54;9.60;99.90
14095;DHT22;18096;48.142;16.290;2022-11-15T16:28:23;9.60;99.90
14095;DHT22;18096;48.142;16.290;2022-11-15T16:30:58;9.60;99.90
14095;DHT22;18096;48.142;16.290;2022-11-15T16:33:24;9.60;99.90
14095;DHT22;18096;48.142;16.290;2022-11-15T16:35:50;9.60;99.90
14095;DHT22;18096;48.142;16.290;2022-11-15T16:38:16;9.60;99.90
14095;DHT22;18096;48.142;16.290;2022-11-15T16:40:42;9.60;99.90
14095;DHT22;18096;48.142;16.290;2022-11-15T16:43:09;9.60;99.90
14095;DHT22;18096;48.142;16.290;2022-11-15T16:45:35;9.50;99.90
14095;DHT22;18096;48.142;16.290;2022-11-15T16:48:01;9.60;99.90
14095;DHT22;18096;48.142;16.290;2022-11-15T16:50:29;9.50;99.90
14095;DHT22;18096;48.142;16.290;2022-11-15T16:52:57;9.60;99.90
14095;DHT22;18096;48.142;16.290;2022-11-15T16:55:25;9.60;99.90
14095;DHT22;18096;48.142;16.290;2022-11-15T16:57:52;9.60;99.90
14095;DHT22;18096;48.142;16.290;2022-11-15T17:00:19;9.60;99.90
14095;DHT22;18096;48.142;16.290;2022-11-15T17:02:46;9.60;99.90
14095;DHT22;18096;48.142;16.290;2022-11-15T17:05:13;9.60;99.90
14095;DHT22;18096;48.142;16.290;2022-11-15T17:07:39;9.60;99.90
14095;DHT22;18096;48.142;16.290;2022-11-15T17:10:06;9.60;99.90
14095;DHT22;18096;48.142;16.290;2022-11-15T17:12:33;9.60;99.90
14095;DHT22;18096;48.142;16.290;2022-11-15T17:14:59;9.60;99.90
14095;DHT22;18096;48.142;16.290;2022-11-15T17:17:27;9.90;99.90
14095;DHT22;18096;48.142;16.290;2022-11-15T17:19:54;9.90;99.90
14095;DHT22;18096;48.142;16.290;2022-11-15T17:22:20;10.00;99.90
14095;DHT22;18096;48.142;16.290;2022-11-15T17:24:45;9.90;99.90
14095;DHT22;18096;48.142;16.290;2022-11-15T17:27:11;9.90;99.90
14095;DHT22;18096;48.142;16.290;2022-11-15T17:29:37;9.90;99.90
14095;DHT22;18096;48.142;16.290;2022-11-15T17:32:03;9.80;99.90
14095;DHT22;18096;48.142;16.290;2022-11-15T17:34:29;9.80;99.90
14095;DHT22;18096;48.142;16.290;2022-11-15T17:36:55;9.80;99.90
14095;DHT22;18096;48.142;16.290;2022-11-15T17:39:21;9.80;99.90
14095;DHT22;18096;48.142;16.290;2022-11-15T17:41:48;9.80;99.90
14095;DHT22;18096;48.142;16.290;2022-11-15T17:44:14;9.70;99.90
14095;DHT22;18096;48.142;16.290;2022-11-15T17:46:41;9.70;99.90
14095;DHT22;18096;48.142;16.290;2022-11-15T17:49:07;9.70;99.90
14095;DHT22;18096;48.142;16.290;2022-11-15T17:51:33;9.70;99.90
14095;DHT22;18096;48.142;16.290;2022-11-15T17:53:59;9.80;99.90
14095;DHT22;18096;48.142;16.290;2022-11-15T17:56:26;9.80;99.90
14095;DHT22;18096;48.142;16.290;2022-11-15T17:58:57;9.90;99.90